createdAt,value
2023-03-08T00:01:33.974Z,69.94
2023-03-08T00:04:35.569Z,70.42
2023-03-08T00:07:37.716Z,70.06
2023-03-08T00:10:39.039Z,70.36
2023-03-08T00:13:41.209Z,69.40
2023-03-08T00:16:42.562Z,70.21
2023-03-08T00:19:44.422Z,69.32
2023-03-08T00:22:45.918Z,69.82
2023-03-08T00:25:51.605Z,70.07
2023-03-08T00:28:53.749Z,71.19
2023-03-08T00:31:55.125Z,70.43
2023-03-08T00:34:56.544Z,70.96
2023-03-08T00:37:57.838Z,71.25
2023-03-08T00:40:59.992Z,71.49
2023-03-08T00:44:02.125Z,70.80
2023-03-08T00:47:03.539Z,70.59
2023-03-08T00:50:06.354Z,70.87
2023-03-08T00:53:07.899Z,70.58
2023-03-08T00:56:09.393Z,69.98
2023-03-08T00:59:11.512Z,70.77
2023-03-08T01:02:12.844Z,69.72
2023-03-08T01:05:14.412Z,71.75
2023-03-08T01:08:17.224Z,70.54
2023-03-08T01:11:21.352Z,71.30
2023-03-08T01:14:23.464Z,71.68
2023-03-08T01:17:25.001Z,71.13
2023-03-08T01:20:26.530Z,71.41
2023-03-08T01:23:28.280Z,71.41
2023-03-08T01:26:29.701Z,71.12
2023-03-08T01:29:31.688Z,70.33
2023-03-08T01:32:33.042Z,71.93
2023-03-08T01:35:34.627Z,72.16
2023-03-08T01:38:36.514Z,72.00
2023-03-08T01:41:38.568Z,70.63
2023-03-08T01:44:52.375Z,72.42
2023-03-08T01:47:53.852Z,72.71
2023-03-08T01:50:55.417Z,74.38
2023-03-08T01:53:59.600Z,73.10
2023-03-08T01:57:05.300Z,73.23
2023-03-08T02:00:09.677Z,72.67
2023-03-08T02:03:11.747Z,74.07
2023-03-08T02:06:14.587Z,72.48
2023-03-08T02:09:15.918Z,73.09
2023-03-08T02:12:17.798Z,73.21
2023-03-08T02:15:21.272Z,72.49
2023-03-08T02:21:43.778Z,72.92
2023-03-08T02:24:45.803Z,73.54
2023-03-08T02:27:47.957Z,73.09
2023-03-08T02:30:49.782Z,74.04
2023-03-08T02:33:51.246Z,74.11
2023-03-08T02:36:52.703Z,73.99
2023-03-08T02:39:54.749Z,74.30
2023-03-08T02:42:56.194Z,74.30
2023-03-08T02:45:57.504Z,72.85
2023-03-08T02:48:58.926Z,73.85
2023-03-08T02:52:00.386Z,74.09
2023-03-08T02:55:02.396Z,71.92
2023-03-08T02:58:04.464Z,72.91
2023-03-08T03:01:10.899Z,72.43
2023-03-08T03:04:12.534Z,73.15
2023-03-08T03:07:13.825Z,72.28
2023-03-08T03:10:16.143Z,72.67
2023-03-08T03:13:17.615Z,72.01
2023-03-08T03:16:19.001Z,73.00
2023-03-08T03:19:20.547Z,73.12
2023-03-08T03:22:21.877Z,73.58
2023-03-08T03:25:24.017Z,72.99
2023-03-08T03:28:25.526Z,73.18
2023-03-08T03:31:27.193Z,72.70
2023-03-08T03:34:29.191Z,72.80
2023-03-08T03:37:30.560Z,73.01
2023-03-08T03:40:32.714Z,73.20
2023-03-08T03:43:35.121Z,72.32
2023-03-08T03:46:36.591Z,72.61
2023-03-08T03:49:38.156Z,73.56
2023-03-08T03:52:39.537Z,73.43
2023-03-08T03:55:41.671Z,74.04
2023-03-08T03:58:43.324Z,72.39
2023-03-08T04:01:44.668Z,73.08
2023-03-08T04:04:48.914Z,73.61
2023-03-08T04:07:50.215Z,74.13
2023-03-08T04:10:52.344Z,73.52
2023-03-08T04:13:53.898Z,72.77
2023-03-08T04:16:55.760Z,73.35
2023-03-08T04:19:57.259Z,73.15
2023-03-08T04:22:58.554Z,73.37
2023-03-08T04:26:00.881Z,73.75
2023-03-08T04:29:04.928Z,71.90
2023-03-08T04:32:06.894Z,73.03
2023-03-08T04:35:08.987Z,72.20
2023-03-08T04:38:10.715Z,72.25
2023-03-08T04:41:13.445Z,71.47
2023-03-08T04:44:14.756Z,71.48
2023-03-08T04:47:16.142Z,71.83
2023-03-08T04:50:17.624Z,71.29
2023-03-08T04:53:19.034Z,71.98
2023-03-08T04:56:21.301Z,70.61
2023-03-08T04:59:22.815Z,71.05
2023-03-08T05:02:24.318Z,70.14
2023-03-08T05:05:25.688Z,70.70
2023-03-08T05:08:27.244Z,72.12
2023-03-08T05:11:29.269Z,70.33
2023-03-08T05:14:30.592Z,71.29
2023-03-08T05:17:32.031Z,71.90
2023-03-08T05:20:33.346Z,71.95
2023-03-08T05:23:34.836Z,70.52
2023-03-08T05:26:36.873Z,70.12
2023-03-08T05:29:38.364Z,70.22
2023-03-08T05:32:39.896Z,70.45
2023-03-08T05:35:41.379Z,71.22
2023-03-08T05:38:43.441Z,71.52
2023-03-08T05:41:45.489Z,72.08
2023-03-08T05:44:46.946Z,72.27
2023-03-08T05:47:48.260Z,73.37
2023-03-08T05:50:49.583Z,72.88
2023-03-08T05:53:51.008Z,72.77
2023-03-08T05:56:53.009Z,72.92
2023-03-08T05:59:54.345Z,72.12
2023-03-08T06:02:58.826Z,72.91
2023-03-08T06:06:00.142Z,71.98
2023-03-08T06:09:01.611Z,72.73
2023-03-08T06:12:03.861Z,72.75
2023-03-08T06:15:06.546Z,72.63
2023-03-08T06:18:07.848Z,72.83
2023-03-08T06:21:12.614Z,72.80
2023-03-08T06:24:13.951Z,72.72
2023-03-08T06:27:16.419Z,72.13
2023-03-08T06:30:18.205Z,72.70
2023-03-08T06:33:21.257Z,72.88
2023-03-08T06:36:22.699Z,73.10
2023-03-08T06:39:24.021Z,72.02
2023-03-08T06:42:40.226Z,71.51
2023-03-08T06:45:42.894Z,70.69
2023-03-08T06:48:44.771Z,68.82
2023-03-08T06:51:46.247Z,65.79
2023-03-08T06:54:47.694Z,68.03
2023-03-08T06:57:49.647Z,67.79
2023-03-08T07:00:51.163Z,68.54
2023-03-08T07:03:52.687Z,66.19
2023-03-08T07:06:54.102Z,67.42
2023-03-08T07:09:55.597Z,65.63
2023-03-08T07:12:57.534Z,65.96
2023-03-08T07:15:59.024Z,66.07
2023-03-08T07:19:01.741Z,64.66
2023-03-08T07:22:03.130Z,65.13
2023-03-08T07:25:05.107Z,64.47
2023-03-08T07:28:07.259Z,64.44
2023-03-08T07:31:11.387Z,61.78
2023-03-08T07:34:12.924Z,60.35
2023-03-08T07:37:15.487Z,60.63
2023-03-08T07:40:17.655Z,60.08
2023-03-08T07:43:19.620Z,59.08
2023-03-08T07:46:21.211Z,58.43
2023-03-08T07:49:22.590Z,56.70
2023-03-08T07:52:27.666Z,58.05
2023-03-08T07:55:29.006Z,56.47
2023-03-08T07:58:31.695Z,57.00
2023-03-08T08:01:33.217Z,56.37
2023-03-08T08:04:34.636Z,56.85
2023-03-08T08:07:35.975Z,56.29
2023-03-08T08:10:37.292Z,57.62
2023-03-08T08:13:39.558Z,56.72
2023-03-08T08:16:40.934Z,56.66
2023-03-08T08:19:42.232Z,56.18
2023-03-08T08:22:43.560Z,56.71
2023-03-08T08:25:45.901Z,55.37
2023-03-08T08:28:51.493Z,55.90
2023-03-08T08:31:52.861Z,54.84
2023-03-08T08:34:54.194Z,55.13
2023-03-08T08:37:55.600Z,55.25
2023-03-08T08:40:59.166Z,56.21
2023-03-08T08:44:01.164Z,56.91
2023-03-08T08:47:02.705Z,56.50
2023-03-08T08:50:04.833Z,56.49
2023-03-08T08:53:06.402Z,57.38
2023-03-08T08:56:25.608Z,57.71
2023-03-08T08:59:28.913Z,55.39
2023-03-08T09:02:30.342Z,55.47
2023-03-08T09:05:32.656Z,54.33
2023-03-08T09:08:33.977Z,54.59
2023-03-08T09:11:39.912Z,54.06
2023-03-08T09:14:44.665Z,52.34
2023-03-08T09:17:45.955Z,53.21
2023-03-08T09:20:47.342Z,51.50
2023-03-08T09:23:48.774Z,52.16
2023-03-08T09:26:50.045Z,51.64
2023-03-08T09:29:52.100Z,51.60
2023-03-08T09:32:53.494Z,52.42
2023-03-08T09:35:56.452Z,53.48
2023-03-08T09:38:57.831Z,51.69
2023-03-08T09:42:01.010Z,51.75
2023-03-08T09:45:20.132Z,50.19
2023-03-08T09:48:26.819Z,50.57
2023-03-08T09:51:34.659Z,50.23
2023-03-08T09:54:38.563Z,49.20
2023-03-08T09:57:46.049Z,48.90
2023-03-08T10:00:48.153Z,49.08
2023-03-08T10:04:25.382Z,49.15
2023-03-08T10:07:35.262Z,48.54
2023-03-08T10:10:47.585Z,48.27
2023-03-08T10:13:52.656Z,48.76
2023-03-08T10:16:59.851Z,49.18
2023-03-08T10:20:08.611Z,47.83
2023-03-08T10:23:15.827Z,47.18
2023-03-08T10:26:18.179Z,45.52
2023-03-08T10:29:19.670Z,45.28
2023-03-08T10:32:22.769Z,46.06
2023-03-08T10:35:33.349Z,44.72
2023-03-08T10:38:36.582Z,45.18
2023-03-08T10:41:41.863Z,45.26
2023-03-08T10:44:46.977Z,45.47
2023-03-08T10:47:55.585Z,45.95
2023-03-08T10:51:01.938Z,46.70
2023-03-08T10:54:04.990Z,45.94
2023-03-08T10:57:19.220Z,44.50
2023-03-08T11:00:36.152Z,45.76
2023-03-08T11:03:38.309Z,46.10
2023-03-08T11:06:39.636Z,45.64
2023-03-08T11:09:41.127Z,44.80
2023-03-08T11:12:43.791Z,44.34
2023-03-08T11:15:54.225Z,45.11
2023-03-08T11:19:05.706Z,42.82
2023-03-08T11:22:18.472Z,42.08
2023-03-08T11:25:34.125Z,41.41
2023-03-08T11:28:48.243Z,41.21
2023-03-08T11:31:59.249Z,41.90
2023-03-08T11:35:14.239Z,42.77
2023-03-08T11:38:20.474Z,43.69
2023-03-08T11:41:27.190Z,43.68
2023-03-08T11:44:40.905Z,43.44
2023-03-08T11:48:14.230Z,44.53
2023-03-08T11:51:21.905Z,43.85
2023-03-08T11:54:43.297Z,43.44
2023-03-08T11:57:49.080Z,43.68
2023-03-08T12:00:54.794Z,43.66
2023-03-08T12:04:04.419Z,44.22
2023-03-08T12:07:15.892Z,44.88
2023-03-08T12:10:22.066Z,44.81
2023-03-08T12:13:28.647Z,44.31
2023-03-08T12:16:37.784Z,43.33
2023-03-08T12:19:43.027Z,40.76
2023-03-08T12:22:47.463Z,41.73
2023-03-08T12:25:52.419Z,41.38
2023-03-08T12:28:58.128Z,41.08
2023-03-08T12:32:01.326Z,43.47
2023-03-08T12:35:04.995Z,42.79
2023-03-08T12:38:35.339Z,44.57
2023-03-08T12:41:36.764Z,44.08
2023-03-08T12:44:38.967Z,44.13
2023-03-08T12:47:40.397Z,43.74
2023-03-08T12:50:45.849Z,43.79
2023-03-08T12:53:57.925Z,45.18
2023-03-08T12:57:01.528Z,44.89
2023-03-08T13:00:09.870Z,46.84
2023-03-08T13:03:27.535Z,44.03
2023-03-08T13:06:57.343Z,43.67
2023-03-08T13:10:07.986Z,44.39
2023-03-08T13:13:38.839Z,44.54
2023-03-08T13:16:40.989Z,44.56
2023-03-08T13:19:42.862Z,44.69
2023-03-08T13:22:58.679Z,45.43
2023-03-08T13:26:24.042Z,44.77
2023-03-08T13:32:50.207Z,45.46
2023-03-08T13:35:56.887Z,47.42
2023-03-08T13:39:00.214Z,46.40
2023-03-08T13:42:07.810Z,46.58
2023-03-08T13:45:16.454Z,46.04
2023-03-08T13:48:19.172Z,46.95
2023-03-08T13:51:26.520Z,48.31
2023-03-08T13:54:31.748Z,48.37
2023-03-08T13:57:36.986Z,48.05
2023-03-08T14:00:38.793Z,49.55
2023-03-08T14:03:42.072Z,50.50
2023-03-08T14:06:49.819Z,49.50
2023-03-08T14:09:51.284Z,50.26
2023-03-08T14:12:53.695Z,50.48
2023-03-08T14:15:57.934Z,51.25
2023-03-08T14:19:08.294Z,51.75
2023-03-08T14:22:13.317Z,53.38
2023-03-08T14:25:24.608Z,55.59
2023-03-08T14:28:35.797Z,57.09
2023-03-08T14:31:38.223Z,58.31
2023-03-08T14:34:41.693Z,59.47
2023-03-08T14:37:44.736Z,59.82
2023-03-08T14:40:48.790Z,62.35
2023-03-08T14:43:51.170Z,61.46
2023-03-08T14:46:57.687Z,62.17
2023-03-08T14:50:02.061Z,63.00
2023-03-08T14:53:03.591Z,63.30
2023-03-08T14:56:11.174Z,64.60
2023-03-08T14:59:25.243Z,63.69
2023-03-08T15:02:28.774Z,63.74
2023-03-08T15:05:30.531Z,64.24
2023-03-08T15:08:32.161Z,64.98
2023-03-08T15:11:34.261Z,64.68
2023-03-08T15:14:36.532Z,65.75
2023-03-08T15:17:37.852Z,65.53
2023-03-08T15:20:44.020Z,65.02
2023-03-08T15:23:46.983Z,65.38
2023-03-08T15:26:48.444Z,65.40
2023-03-08T15:29:50.435Z,67.06
2023-03-08T15:32:51.985Z,67.46
2023-03-08T15:35:53.494Z,66.19
2023-03-08T15:38:54.944Z,68.53
2023-03-08T15:41:56.474Z,67.92
2023-03-08T15:44:58.582Z,67.73
2023-03-08T15:48:01.975Z,68.36
2023-03-08T15:51:03.891Z,66.77
2023-03-08T15:54:06.230Z,68.05
2023-03-08T15:57:07.689Z,69.10
2023-03-08T16:00:12.204Z,68.62
2023-03-08T16:03:14.155Z,68.60
2023-03-08T16:06:16.998Z,69.45
2023-03-08T16:09:18.301Z,69.80
2023-03-08T16:12:19.778Z,69.39
2023-03-08T16:15:22.091Z,69.31
2023-03-08T16:18:23.547Z,70.15
2023-03-08T16:21:24.820Z,69.99
2023-03-08T16:24:26.371Z,70.05
2023-03-08T16:27:29.676Z,70.65
2023-03-08T16:30:32.824Z,70.34
2023-03-08T16:33:34.758Z,69.74
2023-03-08T16:36:36.147Z,71.41
2023-03-08T16:39:37.463Z,70.78
2023-03-08T16:42:38.801Z,71.50
2023-03-08T16:45:52.940Z,70.02
2023-03-08T16:48:55.199Z,70.44
2023-03-08T16:51:56.661Z,70.74
2023-03-08T16:54:57.969Z,70.41
2023-03-08T16:57:59.545Z,71.15
2023-03-08T17:01:01.599Z,71.71
2023-03-08T17:04:02.939Z,71.94
2023-03-08T17:07:07.666Z,72.17
2023-03-08T17:10:10.157Z,72.77
2023-03-08T17:13:12.062Z,72.27
2023-03-08T17:16:14.091Z,72.63
2023-03-08T17:19:15.471Z,73.38
2023-03-08T17:22:16.874Z,73.55
2023-03-08T17:25:18.210Z,73.60
2023-03-08T17:28:19.526Z,73.22
2023-03-08T17:31:22.879Z,72.88
2023-03-08T17:34:24.250Z,73.31
2023-03-08T17:37:25.570Z,73.06
2023-03-08T17:40:27.717Z,73.62
2023-03-08T17:43:29.088Z,73.02
2023-03-08T17:46:31.164Z,73.13
2023-03-08T17:49:33.422Z,73.42
2023-03-08T17:52:34.931Z,73.72
2023-03-08T17:55:40.991Z,73.02
2023-03-08T17:58:42.874Z,73.36
2023-03-08T18:01:44.951Z,73.35
2023-03-08T18:04:48.084Z,74.39
2023-03-08T18:07:49.419Z,74.39
2023-03-08T18:10:50.904Z,74.87
2023-03-08T18:13:52.569Z,74.22
2023-03-08T18:16:54.643Z,73.89
2023-03-08T18:19:56.097Z,74.46
2023-03-08T18:22:57.401Z,73.80
2023-03-08T18:25:59.610Z,74.20
2023-03-08T18:29:00.912Z,74.60
2023-03-08T18:32:03.804Z,74.27
2023-03-08T18:35:06.092Z,74.35
2023-03-08T18:38:07.395Z,74.68
2023-03-08T18:41:14.460Z,74.72
2023-03-08T18:44:16.088Z,74.42
2023-03-08T18:47:18.743Z,74.40
2023-03-08T18:50:20.975Z,72.84
2023-03-08T18:53:22.388Z,71.06
2023-03-08T18:56:25.185Z,72.40
2023-03-08T18:59:27.300Z,73.26
2023-03-08T19:02:29.527Z,73.03
2023-03-08T19:05:30.812Z,72.96
2023-03-08T19:08:32.181Z,73.14
2023-03-08T19:11:33.994Z,71.66
2023-03-08T19:14:35.406Z,71.98
2023-03-08T19:17:37.478Z,72.03
2023-03-08T19:20:40.919Z,72.40
2023-03-08T19:27:04.353Z,73.64
2023-03-08T19:30:06.748Z,73.49
2023-03-08T19:33:11.240Z,74.08
2023-03-08T19:36:17.424Z,74.13
2023-03-08T19:39:21.350Z,74.34
2023-03-08T19:42:22.951Z,73.99
2023-03-08T19:45:24.451Z,74.96
2023-03-08T19:48:26.551Z,74.77
2023-03-08T19:51:27.874Z,74.78
2023-03-08T19:54:31.242Z,74.43
2023-03-08T19:57:33.329Z,74.38
2023-03-08T20:00:34.689Z,74.39
2023-03-08T20:03:37.388Z,74.30
2023-03-08T20:06:40.246Z,74.86
2023-03-08T20:09:42.271Z,75.54
2023-03-08T20:12:43.705Z,74.57
2023-03-08T20:15:45.185Z,76.58
2023-03-08T20:18:48.981Z,75.84
2023-03-08T20:21:56.271Z,73.97
2023-03-08T20:24:57.573Z,73.21
2023-03-08T20:27:58.873Z,73.75
2023-03-08T20:31:00.343Z,73.65
2023-03-08T20:34:02.785Z,73.80
2023-03-08T20:37:04.075Z,73.04
2023-03-08T20:40:06.294Z,74.75
2023-03-08T20:43:10.161Z,74.87
2023-03-08T20:46:13.562Z,73.80
2023-03-08T20:49:16.033Z,74.74
2023-03-08T20:52:17.378Z,75.65
2023-03-08T20:55:19.022Z,75.02
2023-03-08T20:58:20.473Z,74.53
2023-03-08T21:01:24.541Z,74.28
2023-03-08T21:04:26.767Z,74.18
2023-03-08T21:07:28.088Z,74.54
2023-03-08T21:10:32.236Z,74.26
2023-03-08T21:13:33.736Z,74.46
2023-03-08T21:16:35.354Z,73.08
2023-03-08T21:19:37.522Z,74.08
2023-03-08T21:22:38.805Z,72.89
2023-03-08T21:25:40.268Z,73.84
2023-03-08T21:28:41.871Z,74.31
2023-03-08T21:31:45.269Z,73.37
2023-03-08T21:34:47.411Z,73.82
2023-03-08T21:37:48.705Z,73.35
2023-03-08T21:40:50.179Z,73.46
2023-03-08T21:43:52.063Z,73.77
2023-03-08T21:46:54.986Z,73.31
2023-03-08T21:49:57.160Z,73.26
2023-03-08T21:52:58.690Z,73.27
2023-03-08T21:56:00.251Z,74.23
2023-03-08T21:59:01.592Z,75.14
2023-03-08T22:02:03.056Z,73.88
2023-03-08T22:05:06.245Z,74.19
2023-03-08T22:08:08.006Z,74.74
2023-03-08T22:11:09.733Z,75.48
2023-03-08T22:14:11.407Z,74.89
2023-03-08T22:17:13.340Z,75.24
2023-03-08T22:20:15.385Z,74.55
2023-03-08T22:23:16.818Z,74.61
2023-03-08T22:26:19.040Z,75.54
2023-03-08T22:29:20.361Z,73.90
2023-03-08T22:32:22.257Z,75.46
2023-03-08T22:35:24.330Z,74.10
2023-03-08T22:38:25.777Z,75.14
2023-03-08T22:41:27.904Z,74.48
2023-03-08T22:44:29.494Z,74.57
2023-03-08T22:47:30.964Z,74.60
2023-03-08T22:50:33.014Z,76.06
2023-03-08T22:53:34.796Z,73.55
2023-03-08T22:56:36.608Z,74.38
2023-03-08T22:59:38.058Z,75.10
2023-03-08T23:02:40.034Z,74.79
2023-03-08T23:05:42.135Z,73.85
2023-03-08T23:08:43.455Z,74.65
2023-03-08T23:11:45.214Z,73.37
2023-03-08T23:14:46.484Z,72.45
2023-03-08T23:17:47.930Z,71.71
2023-03-08T23:20:50.023Z,72.18
2023-03-08T23:23:51.473Z,72.14
2023-03-08T23:26:59.629Z,72.78
2023-03-08T23:30:00.938Z,71.96
2023-03-08T23:33:02.572Z,72.71
2023-03-08T23:36:05.667Z,72.07
2023-03-08T23:39:07.590Z,72.37
2023-03-08T23:42:08.877Z,72.29
2023-03-08T23:45:10.676Z,70.40
2023-03-08T23:48:12.189Z,71.72
2023-03-08T23:51:16.198Z,71.55
2023-03-08T23:54:17.705Z,71.87
2023-03-08T23:57:19.083Z,72.70
